Huvudsida
METAR-TAF:

METAR-TAF

Flygplatser :

Hemavan Tärnaby Airport

Hemavan, Sverige

latitud: 65-48-22N, longitud: 015-04-58E, höjd: 458 m

Aktuellt väderrapport

Denna rapport gjordes för 1 timme och 5 minuter sedan, klockan 13:50 UTC
Vind 12 kt från väst/nordväst
Temperatur 11°C
Fuktighet 62%
Tryck 1007 hPa
Sikt 10 km eller mer

METAR: ESUT 201350Z AUTO 29012KT 9999 BKN048/// 11/04 Q1007

Tid: 16:55 (14:55 UTC)


TAF: saknas

Aktuella väderrapporter och prognoser från 4000 flygplatser (METAR- och TAF-rapporter).

De tillgängliga stationerna syns som gula och röda prickar på kartan.

För musen över prickarna för att se namnen på stationerna.

Klicka sedan för att få väderrapporter och prognoser.

För att ändra kartan: Klicka på de gröna knapparna med ett svart kors på för att zooma in; den gröna knappen med ett streck på för att zooma ut; eller på de gröna pilarna för angränsande kartor.


METAR-TAF: